Time;durP1;ratioP1;P1;durP2;ratioP2;P2;SDS_P1;SDS_P2;PMS_P1;PMS_P2;Temp;Humidity;BMP_temperature;BMP_pressure;BME280_temperature;BME280_humidity;BME280_pressure;Samples;Min_cycle;Max_cycle;Signal;HPM_P1;HPM_P2
2022/01/19 00:00:42;;;;;;;10.82;7.20;;;;;;;;;;4952746;29;20047;-68
2022/01/19 00:03:10;;;;;;;12.55;7.90;;;;;;;;;;4904810;29;20056;-67
2022/01/19 00:05:38;;;;;;;11.63;6.97;;;;;;;;;;4936953;29;20557;-67
2022/01/19 00:08:04;;;;;;;12.82;7.82;;;;;;;;;;4936928;29;20103;-67
2022/01/19 00:10:31;;;;;;;14.25;7.38;;;;;;;;;;4904512;29;20403;-67
2022/01/19 00:12:58;;;;;;;12.88;7.40;;;;;;;;;;4925785;29;20107;-67
2022/01/19 00:15:26;;;;;;;16.88;7.88;;;;;;;;;;4920075;29;20474;-67
2022/01/19 00:17:58;;;;;;;13.43;7.82;;;;;;;;;;4919633;29;20678;-67
2022/01/19 00:20:27;;;;;;;12.18;7.70;;;;;;;;;;4920876;29;20127;-68
2022/01/19 00:22:54;;;;;;;14.27;7.68;;;;;;;;;;4910561;29;20051;-67
2022/01/19 00:25:21;;;;;;;14.60;7.97;;;;;;;;;;4938761;29;20074;-68
2022/01/19 00:27:48;;;;;;;17.70;8.55;;;;;;;;;;4925425;29;20110;-67
2022/01/19 00:30:15;;;;;;;16.15;8.10;;;;;;;;;;4904214;29;20055;-67
2022/01/19 00:32:41;;;;;;;15.73;8.85;;;;;;;;;;4936324;29;20055;-68
2022/01/19 00:35:09;;;;;;;15.52;8.15;;;;;;;;;;4912691;29;20051;-68
2022/01/19 00:37:39;;;;;;;9.73;7.55;;;;;;;;;;4922526;29;20051;-68
2022/01/19 00:40:07;;;;;;;13.40;8.57;;;;;;;;;;4933617;28;20498;-67
2022/01/19 00:42:34;;;;;;;15.85;8.25;;;;;;;;;;4922597;29;20443;-67
2022/01/19 00:45:01;;;;;;;16.67;7.97;;;;;;;;;;4932855;29;20055;-67
2022/01/19 00:47:28;;;;;;;12.55;8.40;;;;;;;;;;4919456;29;20056;-68
2022/01/19 00:49:54;;;;;;;15.18;9.27;;;;;;;;;;4934382;29;20058;-68
2022/01/19 00:52:21;;;;;;;14.20;8.38;;;;;;;;;;4922595;29;20489;-68
2022/01/19 00:54:47;;;;;;;15.50;8.93;;;;;;;;;;4949681;29;20564;-67
2022/01/19 00:57:14;;;;;;;15.93;8.38;;;;;;;;;;4955038;29;20051;-68
2022/01/19 00:59:41;;;;;;;15.35;9.25;;;;;;;;;;4920498;29;20083;-68
2022/01/19 01:02:07;;;;;;;14.32;9.27;;;;;;;;;;4937611;29;20059;-67
2022/01/19 01:04:34;;;;;;;10.82;8.02;;;;;;;;;;4912482;29;20490;-68
2022/01/19 01:07:01;;;;;;;14.57;9.00;;;;;;;;;;4937957;29;20083;-68
2022/01/19 01:09:28;;;;;;;13.27;8.88;;;;;;;;;;4945802;29;20115;-68
2022/01/19 01:12:00;;;;;;;17.38;9.20;;;;;;;;;;4935939;29;20059;-69
2022/01/19 01:18:18;;;;;;;16.73;10.18;;;;;;;;;;4922665;29;20063;-68
2022/01/19 01:20:02;;;;;;;14.30;10.15;;;;;;;;;;4951293;29;20051;-67
2022/01/19 01:22:29;;;;;;;15.45;9.73;;;;;;;;;;4952785;28;20056;-69
2022/01/19 01:24:56;;;;;;;19.13;10.57;;;;;;;;;;4918474;29;20111;-67
2022/01/19 01:27:22;;;;;;;17.52;10.65;;;;;;;;;;4920993;29;20056;-67
2022/01/19 01:29:49;;;;;;;19.85;10.98;;;;;;;;;;4943663;29;20114;-68
2022/01/19 01:32:15;;;;;;;13.20;9.52;;;;;;;;;;4935465;29;20055;-68
2022/01/19 01:34:42;;;;;;;16.92;10.30;;;;;;;;;;4921632;29;20058;-68
2022/01/19 01:37:09;;;;;;;15.30;9.40;;;;;;;;;;4954426;29;20169;-67
2022/01/19 01:39:35;;;;;;;16.50;10.20;;;;;;;;;;4937260;29;20051;-68
2022/01/19 01:42:15;;;;;;;17.42;10.80;;;;;;;;;;4953431;29;20055;-67
2022/01/19 01:44:45;;;;;;;15.45;10.15;;;;;;;;;;4936134;29;20047;-67
2022/01/19 01:47:13;;;;;;;18.08;10.57;;;;;;;;;;4953054;29;20051;-68
2022/01/19 01:54:56;;;;;;;21.35;10.88;;;;;;;;;;4952964;29;20464;-68
2022/01/19 01:57:22;;;;;;;18.65;11.10;;;;;;;;;;4952722;29;20153;-67
2022/01/19 01:59:49;;;;;;;20.02;11.73;;;;;;;;;;4937218;29;20114;-68
2022/01/19 02:02:16;;;;;;;20.13;10.90;;;;;;;;;;4952763;28;20055;-67
2022/01/19 02:04:43;;;;;;;16.73;11.02;;;;;;;;;;4949225;29;20048;-67
2022/01/19 02:07:32;;;;;;;17.10;11.18;;;;;;;;;;4933495;29;20059;-67
2022/01/19 02:10:03;;;;;;;17.10;11.15;;;;;;;;;;4936918;29;20063;-67
2022/01/19 02:23:43;;;;;;;21.30;11.25;;;;;;;;;;4920029;29;20099;-68
2022/01/19 02:26:12;;;;;;;22.73;11.75;;;;;;;;;;4917520;29;20079;-67
2022/01/19 02:29:07;;;;;;;20.58;12.35;;;;;;;;;;4936108;29;20055;-68
2022/01/19 02:42:41;;;;;;;20.30;11.82;;;;;;;;;;4937385;29;20052;-67
2022/01/19 02:50:32;;;;;;;21.08;10.95;;;;;;;;;;4965912;28;20106;-67
2022/01/19 02:52:58;;;;;;;20.95;11.05;;;;;;;;;;4951604;29;20055;-67
2022/01/19 02:55:25;;;;;;;18.77;11.60;;;;;;;;;;4931788;29;20106;-68
2022/01/19 02:57:52;;;;;;;18.98;10.55;;;;;;;;;;4935533;29;20051;-68
2022/01/19 03:08:47;;;;;;;20.90;10.88;;;;;;;;;;4942574;29;20050;-68
2022/01/19 03:11:18;;;;;;;15.45;9.98;;;;;;;;;;4957269;29;20487;-68
2022/01/19 03:13:46;;;;;;;18.58;10.13;;;;;;;;;;4939917;29;20055;-68
2022/01/19 03:16:13;;;;;;;19.70;10.82;;;;;;;;;;4940082;29;20043;-68
2022/01/19 03:18:40;;;;;;;22.08;11.23;;;;;;;;;;4939546;29;20047;-68
2022/01/19 03:21:07;;;;;;;22.63;11.05;;;;;;;;;;4971756;28;20086;-67
2022/01/19 03:23:34;;;;;;;20.95;12.05;;;;;;;;;;4956846;29;20125;-67
2022/01/19 03:26:06;;;;;;;17.40;11.75;;;;;;;;;;4939689;29;20055;-68
2022/01/19 03:28:35;;;;;;;19.88;12.18;;;;;;;;;;4955471;29;20059;-68
2022/01/19 03:31:03;;;;;;;25.60;12.90;;;;;;;;;;4971777;28;20105;-68
2022/01/19 03:33:30;;;;;;;17.92;11.95;;;;;;;;;;4947188;29;20138;-67
2022/01/19 03:35:57;;;;;;;19.50;10.90;;;;;;;;;;4939729;29;20051;-67
2022/01/19 03:38:23;;;;;;;21.25;11.88;;;;;;;;;;4945578;29;20058;-68
2022/01/19 03:40:50;;;;;;;18.50;10.93;;;;;;;;;;4953883;29;20048;-68
2022/01/19 03:43:17;;;;;;;17.15;10.20;;;;;;;;;;4932260;29;20559;-68
2022/01/19 03:45:51;;;;;;;20.95;11.02;;;;;;;;;;4973968;28;20047;-68
2022/01/19 03:51:05;;;;;;;19.58;11.07;;;;;;;;;;4951790;29;20293;-68
2022/01/19 03:53:31;;;;;;;18.85;11.38;;;;;;;;;;4903047;29;20082;-68
2022/01/19 03:55:58;;;;;;;23.90;12.30;;;;;;;;;;4924693;29;20066;-67
2022/01/19 03:58:25;;;;;;;16.98;11.05;;;;;;;;;;4957053;28;20059;-67
2022/01/19 04:00:57;;;;;;;20.58;11.95;;;;;;;;;;4956125;29;20055;-68
2022/01/19 04:03:42;;;;;;;25.52;11.88;;;;;;;;;;4924900;29;20051;-67
2022/01/19 04:06:29;;;;;;;18.33;11.65;;;;;;;;;;4956084;29;20114;-67
2022/01/19 04:08:55;;;;;;;18.88;11.20;;;;;;;;;;4956060;28;20055;-68
2022/01/19 04:11:23;;;;;;;23.08;12.55;;;;;;;;;;4970864;28;20466;-67
2022/01/19 04:16:26;;;;;;;23.08;11.57;;;;;;;;;;4939527;29;20502;-68
2022/01/19 04:19:01;;;;;;;16.80;10.35;;;;;;;;;;4951179;29;20114;-68
2022/01/19 04:21:28;;;;;;;20.67;11.50;;;;;;;;;;4940094;29;20122;-67
2022/01/19 04:23:55;;;;;;;20.77;11.73;;;;;;;;;;4955698;29;20047;-67
2022/01/19 04:26:21;;;;;;;22.30;11.30;;;;;;;;;;4939930;29;20044;-67
2022/01/19 04:28:48;;;;;;;20.98;11.18;;;;;;;;;;4953429;29;20103;-67
2022/01/19 04:31:14;;;;;;;23.15;12.85;;;;;;;;;;4955619;29;20051;-67
2022/01/19 04:33:44;;;;;;;24.02;11.30;;;;;;;;;;4939667;29;20107;-67
2022/01/19 05:03:16;;;;;;;23.42;11.00;;;;;;;;;;4967533;28;20054;-68
2022/01/19 05:05:53;;;;;;;;;;;;;;;;;;4955765;29;20419;-69
2022/01/19 05:08:40;;;;;;;20.50;12.07;;;;;;;;;;4955112;28;19922;-69
2022/01/19 05:13:53;;;;;;;28.38;13.68;;;;;;;;;;4954697;29;20129;-69
2022/01/19 05:16:20;;;;;;;26.50;14.00;;;;;;;;;;4937966;29;20051;-68
2022/01/19 05:18:48;;;;;;;25.40;13.85;;;;;;;;;;4922459;29;20055;-68
2022/01/19 05:21:16;;;;;;;28.23;14.90;;;;;;;;;;4922370;29;20487;-68
2022/01/19 05:23:43;;;;;;;24.52;14.88;;;;;;;;;;4937970;29;20061;-69
2022/01/19 05:26:10;;;;;;;27.70;15.27;;;;;;;;;;4954692;29;20095;-67
2022/01/19 05:28:38;;;;;;;23.08;14.60;;;;;;;;;;4936823;29;20047;-69
2022/01/19 05:31:05;;;;;;;24.33;14.40;;;;;;;;;;4954551;29;20063;-67
2022/01/19 05:33:32;;;;;;;28.40;14.43;;;;;;;;;;4953967;29;20058;-68
2022/01/19 05:35:58;;;;;;;22.48;11.40;;;;;;;;;;4937560;29;20043;-69
2022/01/19 05:38:25;;;;;;;19.88;12.18;;;;;;;;;;4937574;29;20555;-69
2022/01/19 05:40:52;;;;;;;17.55;11.85;;;;;;;;;;4937649;29;20430;-68
2022/01/19 05:43:18;;;;;;;20.08;11.82;;;;;;;;;;4937341;29;20462;-69
2022/01/19 05:45:45;;;;;;;20.20;10.90;;;;;;;;;;4954460;29;20122;-69
2022/01/19 05:48:12;;;;;;;23.88;12.77;;;;;;;;;;4937294;29;20130;-68
2022/01/19 05:50:38;;;;;;;22.15;11.60;;;;;;;;;;4937336;29;20051;-68
2022/01/19 05:53:05;;;;;;;19.52;11.82;;;;;;;;;;4937177;29;20047;-70
2022/01/19 05:55:32;;;;;;;24.60;14.60;;;;;;;;;;4954360;29;20058;-69
2022/01/19 05:57:58;;;;;;;25.85;14.73;;;;;;;;;;4920960;29;20055;-68
2022/01/19 06:00:25;;;;;;;25.77;14.07;;;;;;;;;;4921260;29;20062;-69
2022/01/19 06:02:52;;;;;;;19.52;12.10;;;;;;;;;;4936891;29;20055;-69
2022/01/19 06:05:19;;;;;;;17.73;11.27;;;;;;;;;;4921403;29;20131;-69
2022/01/19 06:07:48;;;;;;;17.67;10.88;;;;;;;;;;4936941;29;20414;-69
2022/01/19 06:10:42;;;;;;;24.35;11.00;;;;;;;;;;4948187;29;20122;-68
2022/01/19 06:13:01;;;;;;;17.38;10.60;;;;;;;;;;4939539;29;20055;-68
2022/01/19 06:15:28;;;;;;;20.33;10.13;;;;;;;;;;4937138;29;20466;-68
2022/01/19 06:17:55;;;;;;;17.70;9.88;;;;;;;;;;4936763;29;20055;-67
2022/01/19 06:20:21;;;;;;;18.88;10.25;;;;;;;;;;4953923;29;20573;-68
2022/01/19 06:22:48;;;;;;;20.65;10.55;;;;;;;;;;4936597;29;20055;-67
2022/01/19 06:25:14;;;;;;;20.65;11.07;;;;;;;;;;4936704;29;20561;-68
2022/01/19 06:27:41;;;;;;;20.58;12.20;;;;;;;;;;4936530;29;20051;-68
2022/01/19 06:30:11;;;;;;;20.73;11.00;;;;;;;;;;4953739;28;20085;-69
2022/01/19 06:32:38;;;;;;;21.67;10.77;;;;;;;;;;4921108;29;20569;-68
2022/01/19 06:35:05;;;;;;;17.70;11.30;;;;;;;;;;4921183;29;20426;-68
2022/01/19 06:37:32;;;;;;;18.55;11.23;;;;;;;;;;4936691;29;20058;-69
2022/01/19 06:39:59;;;;;;;22.75;12.10;;;;;;;;;;4920911;29;20057;-69
2022/01/19 06:42:26;;;;;;;18.65;11.25;;;;;;;;;;4936442;29;20058;-68
2022/01/19 06:44:52;;;;;;;23.10;11.68;;;;;;;;;;4936570;29;20047;-68
2022/01/19 06:47:19;;;;;;;21.27;12.00;;;;;;;;;;4953376;28;20051;-69
2022/01/19 06:49:46;;;;;;;26.95;12.48;;;;;;;;;;4936747;29;20058;-68
2022/01/19 06:52:12;;;;;;;22.63;12.48;;;;;;;;;;4953723;29;20051;-68
2022/01/19 06:54:39;;;;;;;24.60;14.45;;;;;;;;;;4951917;28;20118;-68
2022/01/19 06:57:06;;;;;;;27.00;12.85;;;;;;;;;;4951348;28;20560;-69
2022/01/19 06:59:32;;;;;;;28.65;14.68;;;;;;;;;;4918517;29;20063;-69
2022/01/19 07:01:59;;;;;;;27.00;15.68;;;;;;;;;;4934363;29;20529;-69
2022/01/19 07:04:26;;;;;;;28.67;15.77;;;;;;;;;;4918694;29;20066;-68
2022/01/19 07:06:52;;;;;;;25.98;15.18;;;;;;;;;;4951460;29;20055;-70
2022/01/19 07:09:19;;;;;;;27.52;15.77;;;;;;;;;;4951023;28;20059;-69
2022/01/19 07:11:46;;;;;;;29.48;15.10;;;;;;;;;;4951600;29;20078;-67
2022/01/19 07:14:13;;;;;;;26.75;15.45;;;;;;;;;;4953810;29;20083;-69
2022/01/19 07:16:40;;;;;;;28.85;15.23;;;;;;;;;;4952691;29;20074;-68
2022/01/19 07:19:07;;;;;;;26.50;16.17;;;;;;;;;;4934180;29;20051;-69
2022/01/19 07:21:33;;;;;;;26.92;16.08;;;;;;;;;;4950878;29;20058;-68
2022/01/19 07:24:00;;;;;;;32.85;15.18;;;;;;;;;;4934037;29;20055;-68
2022/01/19 07:26:26;;;;;;;28.80;14.38;;;;;;;;;;4951334;29;20055;-67
2022/01/19 07:28:53;;;;;;;29.98;15.80;;;;;;;;;;4933889;29;20063;-68
2022/01/19 07:31:20;;;;;;;29.90;16.30;;;;;;;;;;4951003;29;20572;-68
2022/01/19 07:33:46;;;;;;;27.98;15.30;;;;;;;;;;4933596;29;20051;-68
2022/01/19 07:36:15;;;;;;;28.58;15.65;;;;;;;;;;4950953;29;20047;-68
2022/01/19 07:38:42;;;;;;;27.90;15.90;;;;;;;;;;4951024;28;20055;-68
2022/01/19 07:41:09;;;;;;;32.35;16.75;;;;;;;;;;4918512;29;20062;-68
2022/01/19 07:43:37;;;;;;;29.50;15.38;;;;;;;;;;4951102;29;20470;-67
2022/01/19 07:46:04;;;;;;;27.65;15.73;;;;;;;;;;4918591;29;20043;-68
2022/01/19 07:48:31;;;;;;;33.20;16.30;;;;;;;;;;4933421;29;20062;-67
2022/01/19 07:50:57;;;;;;;32.00;15.55;;;;;;;;;;4935133;29;20098;-67
2022/01/19 07:53:24;;;;;;;25.73;14.40;;;;;;;;;;4954233;29;20094;-68
2022/01/19 07:55:51;;;;;;;29.75;15.23;;;;;;;;;;4954488;29;20082;-68
2022/01/19 07:58:18;;;;;;;36.45;16.48;;;;;;;;;;4954020;28;20055;-67
2022/01/19 08:00:44;;;;;;;31.20;15.23;;;;;;;;;;4910894;29;20069;-69
2022/01/19 08:03:11;;;;;;;32.58;15.60;;;;;;;;;;4945856;28;20130;-69
2022/01/19 08:05:38;;;;;;;36.97;18.13;;;;;;;;;;4939501;29;20090;-68
2022/01/19 08:08:05;;;;;;;28.73;16.13;;;;;;;;;;4943210;28;20399;-68
2022/01/19 08:10:32;;;;;;;28.50;14.90;;;;;;;;;;4907555;29;20055;-70
2022/01/19 08:13:02;;;;;;;26.15;15.90;;;;;;;;;;4908437;29;20058;-68
2022/01/19 08:15:30;;;;;;;27.63;14.95;;;;;;;;;;4923170;29;20138;-70
2022/01/19 08:17:57;;;;;;;35.00;15.02;;;;;;;;;;4908180;29;20122;-70
2022/01/19 08:20:24;;;;;;;30.00;15.25;;;;;;;;;;4926886;29;20122;-68
2022/01/19 08:22:50;;;;;;;26.15;13.90;;;;;;;;;;4940292;29;20059;-67
2022/01/19 08:25:17;;;;;;;25.50;14.45;;;;;;;;;;4940110;29;20055;-68
2022/01/19 08:27:43;;;;;;;28.17;14.35;;;;;;;;;;4922920;29;20047;-68
2022/01/19 08:30:11;;;;;;;30.88;14.48;;;;;;;;;;4908397;29;20325;-67
2022/01/19 08:32:38;;;;;;;29.25;14.73;;;;;;;;;;4939654;29;20058;-69
2022/01/19 08:35:06;;;;;;;22.02;14.18;;;;;;;;;;4909210;29;20111;-69
2022/01/19 08:37:33;;;;;;;21.00;13.85;;;;;;;;;;4906674;29;20048;-68
2022/01/19 08:40:00;;;;;;;24.10;13.70;;;;;;;;;;4908033;29;20454;-69
2022/01/19 08:42:28;;;;;;;23.58;14.30;;;;;;;;;;4922344;29;20056;-69
2022/01/19 08:44:55;;;;;;;22.48;13.73;;;;;;;;;;4924061;29;20069;-68
2022/01/19 08:47:22;;;;;;;25.33;13.02;;;;;;;;;;4922183;29;20044;-68
2022/01/19 08:50:11;;;;;;;19.25;12.55;;;;;;;;;;4925129;29;20138;-68
2022/01/19 08:52:38;;;;;;;22.27;13.55;;;;;;;;;;4928462;29;20413;-69
2022/01/19 08:55:06;;;;;;;21.17;12.95;;;;;;;;;;4947425;29;20106;-68
2022/01/19 08:57:32;;;;;;;20.48;12.32;;;;;;;;;;4910184;29;20059;-69
2022/01/19 08:59:59;;;;;;;21.45;13.50;;;;;;;;;;4924127;29;20079;-69
2022/01/19 09:02:26;;;;;;;20.77;13.13;;;;;;;;;;4907551;29;20125;-70
2022/01/19 09:04:52;;;;;;;20.10;12.57;;;;;;;;;;4939589;29;20145;-70
2022/01/19 09:07:20;;;;;;;21.48;13.80;;;;;;;;;;4940080;29;20307;-69
2022/01/19 09:09:46;;;;;;;18.88;13.48;;;;;;;;;;4942936;29;20051;-74
2022/01/19 09:12:13;;;;;;;19.83;12.63;;;;;;;;;;4928621;29;20055;-69
2022/01/19 09:14:40;;;;;;;18.48;11.95;;;;;;;;;;4957060;28;20052;-69
2022/01/19 09:17:07;;;;;;;20.63;13.30;;;;;;;;;;4923402;29;20039;-68
2022/01/19 09:19:36;;;;;;;17.98;12.70;;;;;;;;;;4924636;29;20083;-69
2022/01/19 09:22:03;;;;;;;24.77;12.38;;;;;;;;;;4927508;29;20059;-69
2022/01/19 09:24:30;;;;;;;21.55;12.85;;;;;;;;;;4925592;29;20055;-68
2022/01/19 09:26:57;;;;;;;21.90;12.95;;;;;;;;;;4924135;29;20051;-68
2022/01/19 09:29:23;;;;;;;18.58;11.98;;;;;;;;;;4939966;29;20043;-68
2022/01/19 09:31:50;;;;;;;24.85;13.13;;;;;;;;;;4939503;29;20052;-68
2022/01/19 09:34:20;;;;;;;18.42;12.27;;;;;;;;;;4922408;29;20082;-69
2022/01/19 09:36:48;;;;;;;18.48;13.45;;;;;;;;;;4939144;29;20092;-68
2022/01/19 09:39:21;;;;;;;21.90;13.07;;;;;;;;;;4922084;29;20082;-68
2022/01/19 09:41:49;;;;;;;20.13;12.65;;;;;;;;;;4908067;29;20051;-67
2022/01/19 09:44:17;;;;;;;17.80;12.63;;;;;;;;;;4937613;29;20135;-70
2022/01/19 09:46:45;;;;;;;20.33;12.38;;;;;;;;;;4920413;29;20051;-69
2022/01/19 09:49:15;;;;;;;21.52;12.55;;;;;;;;;;4905992;29;20114;-72
2022/01/19 09:51:43;;;;;;;21.30;12.48;;;;;;;;;;4921939;29;20146;-69
2022/01/19 09:54:20;;;;;;;17.08;11.73;;;;;;;;;;4908709;29;20080;-72
2022/01/19 09:56:48;;;;;;;17.33;11.75;;;;;;;;;;4908719;29;20044;-71
2022/01/19 09:59:16;;;;;;;18.98;12.95;;;;;;;;;;4926408;29;20043;-70
2022/01/19 10:02:10;;;;;;;20.80;11.63;;;;;;;;;;4890867;29;20055;-71
2022/01/19 10:04:44;;;;;;;16.08;11.55;;;;;;;;;;4925576;29;20052;-71
2022/01/19 10:07:18;;;;;;;19.55;11.82;;;;;;;;;;4926034;29;20043;-69
2022/01/19 10:09:57;;;;;;;21.58;12.35;;;;;;;;;;4944566;29;20051;-70
2022/01/19 10:18:19;;;;;;;16.52;12.02;;;;;;;;;;4916218;29;20055;-69
2022/01/19 10:21:05;;;;;;;19.15;13.63;;;;;;;;;;4939020;29;20058;-69
2022/01/19 10:23:39;;;;;;;18.90;11.80;;;;;;;;;;4944191;29;20051;-67
2022/01/19 10:26:09;;;;;;;19.45;11.18;;;;;;;;;;4941342;29;20070;-69
2022/01/19 10:28:59;;;;;;;19.88;11.57;;;;;;;;;;4891839;29;20498;-70
2022/01/19 10:31:26;;;;;;;20.10;12.07;;;;;;;;;;4939072;29;20062;-71
2022/01/19 10:34:16;;;;;;;18.27;10.43;;;;;;;;;;4940435;29;20043;-71
2022/01/19 10:36:48;;;;;;;20.90;10.57;;;;;;;;;;4907117;29;20498;-71
2022/01/19 10:39:16;;;;;;;17.80;11.13;;;;;;;;;;4939384;29;20055;-69
2022/01/19 10:42:03;;;;;;;16.05;11.23;;;;;;;;;;4908416;29;20052;-70
2022/01/19 10:44:38;;;;;;;18.45;10.68;;;;;;;;;;4922562;29;20055;-70
2022/01/19 10:47:45;;;;;;;18.13;10.75;;;;;;;;;;4925627;29;20091;-69
2022/01/19 10:50:28;;;;;;;15.30;10.73;;;;;;;;;;4922474;29;20095;-70
2022/01/19 10:53:02;;;;;;;19.92;11.35;;;;;;;;;;4915321;29;20055;-74
2022/01/19 10:55:36;;;;;;;16.17;10.95;;;;;;;;;;4924552;29;20051;-73
2022/01/19 10:58:02;;;;;;;14.23;10.25;;;;;;;;;;4937601;23;20049;-68
2022/01/19 11:00:33;;;;;;;16.95;9.70;;;;;;;;;;5029309;28;20057;-71
2022/01/19 11:03:20;;;;;;;19.88;10.95;;;;;;;;;;5029805;28;20092;-72
2022/01/19 11:05:48;;;;;;;16.42;9.95;;;;;;;;;;5043963;28;20404;-71
2022/01/19 11:08:17;;;;;;;13.68;9.23;;;;;;;;;;5029463;28;20053;-73
2022/01/19 11:10:48;;;;;;;13.73;9.43;;;;;;;;;;5029863;28;20478;-70
2022/01/19 11:13:24;;;;;;;18.27;10.43;;;;;;;;;;5026051;28;20046;-69
2022/01/19 11:15:51;;;;;;;14.40;10.35;;;;;;;;;;5028093;28;20096;-67
2022/01/19 11:18:19;;;;;;;15.68;9.50;;;;;;;;;;5029605;28;20042;-68
2022/01/19 11:20:47;;;;;;;15.95;10.57;;;;;;;;;;5029644;28;20053;-67
2022/01/19 11:23:40;;;;;;;18.75;9.60;;;;;;;;;;5011613;28;20049;-65
2022/01/19 11:26:16;;;;;;;13.10;9.95;;;;;;;;;;5019417;28;20091;-67
2022/01/19 11:28:49;;;;;;;16.02;10.05;;;;;;;;;;5028757;28;20049;-68
2022/01/19 11:31:35;;;;;;;;;;;;;;;;;;5033556;28;20045;-69
2022/01/19 11:34:03;;;;;;;17.83;10.68;;;;;;;;;;5033292;28;19944;-71
2022/01/19 11:36:34;;;;;;;16.48;10.98;;;;;;;;;;5032156;28;20095;-71
2022/01/19 11:39:17;;;;;;;15.77;10.75;;;;;;;;;;5021939;28;20037;-69
2022/01/19 11:41:44;;;;;;;14.45;10.18;;;;;;;;;;5031738;28;20558;-69
2022/01/19 11:44:33;;;;;;;13.60;10.43;;;;;;;;;;5029729;28;20049;-67
2022/01/19 11:47:11;;;;;;;15.20;10.77;;;;;;;;;;5032987;28;20117;-71
2022/01/19 11:49:47;;;;;;;15.15;10.90;;;;;;;;;;5032728;28;20056;-68
2022/01/19 11:52:15;;;;;;;15.38;10.73;;;;;;;;;;5030168;28;20130;-69
2022/01/19 11:54:42;;;;;;;18.67;11.32;;;;;;;;;;5033090;28;20046;-70
2022/01/19 11:57:17;;;;;;;17.27;10.63;;;;;;;;;;5032755;28;20045;-68
2022/01/19 11:59:47;;;;;;;16.38;10.68;;;;;;;;;;5032108;28;20057;-71
2022/01/19 12:02:27;;;;;;;18.17;11.00;;;;;;;;;;5034310;28;20042;-71
2022/01/19 12:05:19;;;;;;;18.65;11.65;;;;;;;;;;5031477;28;20092;-68
2022/01/19 12:07:54;;;;;;;;;;;;;;;;;;5030795;28;20049;-71
2022/01/19 12:10:24;;;;;;;;;;;;;;;;;;5031259;28;19975;-76
2022/01/19 12:13:12;;;;;;;;;;;;;;;;;;5031878;28;20004;-76
2022/01/19 12:15:52;;;;;;;;;;;;;;;;;;5033175;28;20399;-69
2022/01/19 12:18:51;;;;;;;;;;;;;;;;;;5033056;28;20012;-70
2022/01/19 12:21:20;;;;;;;;;;;;;;;;;;4993422;28;19929;-71
2022/01/19 12:23:47;;;;;;;;;;;;;;;;;;5033222;28;20380;-70
2022/01/19 12:26:13;;;;;;;;;;;;;;;;;;5033069;28;20004;-68
2022/01/19 12:28:50;;;;;;;;;;;;;;;;;;5033218;28;19975;-69
2022/01/19 12:31:32;;;;;;;;;;;;;;;;;;5031270;28;19925;-72
2022/01/19 12:34:02;;;;;;;;;;;;;;;;;;5032652;28;19921;-71
2022/01/19 12:36:46;;;;;;;;;;;;;;;;;;5032246;28;19991;-70
2022/01/19 12:39:25;;;;;;;;;;;;;;;;;;5032285;28;19921;-71
2022/01/19 12:41:59;;;;;;;;;;;;;;;;;;5034194;28;19968;-69
2022/01/19 12:44:35;;;;;;;;;;;;;;;;;;5032412;28;19932;-71
2022/01/19 12:47:02;;;;;;;;;;;;;;;;;;5026613;28;20473;-69
2022/01/19 12:49:29;;;;;;;;;;;;;;;;;;5030399;28;19929;-70
2022/01/19 12:51:56;;;;;;;;;;;;;;;;;;5005273;28;19924;-69
2022/01/19 12:54:29;;;;;;;;;;;;;;;;;;5047342;28;19925;-70
2022/01/19 12:57:02;;;;;;;;;;;;;;;;;;5018626;28;19925;-70
2022/01/19 12:59:29;;;;;;;;;;;;;;;;;;5018246;28;20027;-70
2022/01/19 13:01:56;;;;;;;;;;;;;;;;;;5022895;28;19991;-70
2022/01/19 13:04:24;;;;;;;;;;;;;;;;;;5018565;28;19925;-69
2022/01/19 13:06:53;;;;;;;;;;;;;;;;;;5021200;28;19925;-69
2022/01/19 13:09:28;;;;;;;;;;;;;;;;;;5018108;28;20269;-70
2022/01/19 13:11:55;;;;;;;;;;;;;;;;;;5018842;28;20387;-68
2022/01/19 13:14:25;;;;;;;;;;;;;;;;;;5018519;28;19925;-70
2022/01/19 13:16:52;;;;;;;;;;;;;;;;;;5018959;28;20347;-69
2022/01/19 13:19:19;;;;;;;;;;;;;;;;;;5019152;28;19921;-70
2022/01/19 13:21:47;;;;;;;;;;;;;;;;;;5021575;28;20435;-69
2022/01/19 13:24:22;;;;;;;;;;;;;;;;;;5022816;28;19925;-70
2022/01/19 13:26:50;;;;;;;;;;;;;;;;;;5050839;28;19947;-70
2022/01/19 13:29:23;;;;;;;;;;;;;;;;;;5019528;28;19921;-68
2022/01/19 13:32:01;;;;;;;;;;;;;;;;;;5020405;28;20438;-70
2022/01/19 13:34:28;;;;;;;;;;;;;;;;;;5014664;28;20348;-69
2022/01/19 13:36:58;;;;;;;;;;;;;;;;;;5019444;28;20035;-69
2022/01/19 13:39:25;;;;;;;;;;;;;;;;;;5017972;28;20343;-69
2022/01/19 13:41:53;;;;;;;;;;;;;;;;;;5021719;28;20280;-71
2022/01/19 13:44:21;;;;;;;;;;;;;;;;;;5019297;28;19925;-70
2022/01/19 13:46:47;;;;;;;;;;;;;;;;;;5036377;28;20315;-71
2022/01/19 13:49:14;;;;;;;;;;;;;;;;;;5031215;28;19925;-68
2022/01/19 13:51:41;;;;;;;;;;;;;;;;;;5035123;28;19922;-70
2022/01/19 13:54:08;;;;;;;;;;;;;;;;;;5040070;28;19921;-70
2022/01/19 13:56:36;;;;;;;;;;;;;;;;;;5036959;28;19925;-68
2022/01/19 13:59:06;;;;;;;;;;;;;;;;;;5032775;28;19921;-72
2022/01/19 14:01:34;;;;;;;;;;;;;;;;;;5033435;28;19921;-71
2022/01/19 14:04:06;;;;;;;;;;;;;;;;;;5038073;28;19992;-72
2022/01/19 14:06:37;;;;;;;;;;;;;;;;;;5035130;28;20643;-71
2022/01/19 14:09:11;;;;;;;;;;;;;;;;;;5028604;28;19967;-71
2022/01/19 14:11:38;;;;;;;;;;;;;;;;;;5024545;28;19944;-70
2022/01/19 14:14:05;;;;;;;;;;;;;;;;;;5026314;28;19975;-71
2022/01/19 14:16:36;;;;;;;;;;;;;;;;;;5024682;28;19921;-73
2022/01/19 14:19:22;;;;;;;;;;;;;;;;;;5021030;28;20359;-71
2022/01/19 14:22:05;;;;;;;;;;;;;;;;;;5012460;28;20011;-70
2022/01/19 14:24:40;;;;;;;;;;;;;;;;;;5023532;28;19983;-71
2022/01/19 14:27:25;;;;;;;;;;;;;;;;;;5009738;28;19921;-72
2022/01/19 14:29:58;;;;;;;;;;;;;;;;;;5019066;28;20285;-71
2022/01/19 14:32:42;;;;;;;;;;;;;;;;;;5018594;28;19925;-71
2022/01/19 14:35:28;;;;;;;;;;;;;;;;;;5018783;28;19920;-69
2022/01/19 14:37:59;;;;;;;;;;;;;;;;;;5019802;28;19922;-69
2022/01/19 14:40:25;;;;;;;;;;;;;;;;;;5032012;28;19925;-70
2022/01/19 14:42:52;;;;;;;;;;;;;;;;;;5019636;28;19967;-70
2022/01/19 14:45:23;;;;;;;;;;;;;;;;;;5018274;28;19929;-69
2022/01/19 14:47:53;;;;;;;;;;;;;;;;;;5019221;28;19979;-69
2022/01/19 14:50:33;;;;;;;;;;;;;;;;;;5021769;28;19925;-69
2022/01/19 14:53:00;;;;;;;;;;;;;;;;;;5018233;28;19921;-70
2022/01/19 14:55:28;;;;;;;;;;;;;;;;;;5020854;28;19949;-72
2022/01/19 14:57:55;;;;;;;;;;;;;;;;;;5045462;28;19984;-72
2022/01/19 15:00:22;;;;;;;;;;;;;;;;;;5022793;28;19968;-69
2022/01/19 15:02:52;;;;;;;;;;;;;;;;;;5022838;28;19968;-70
2022/01/19 15:05:19;;;;;;;;;;;;;;;;;;5021153;28;19928;-71
2022/01/19 15:07:46;;;;;;;;;;;;;;;;;;5022285;28;19964;-71
2022/01/19 15:10:13;;;;;;;;;;;;;;;;;;5024488;28;19922;-71
2022/01/19 15:12:40;;;;;;;;;;;;;;;;;;5058349;28;19956;-71
2022/01/19 15:15:09;;;;;;;;;;;;;;;;;;5023978;28;20341;-69
2022/01/19 15:17:36;;;;;;;;;;;;;;;;;;5055875;28;19922;-69
2022/01/19 15:20:04;;;;;;;;;;;;;;;;;;5022909;28;19922;-68
2022/01/19 15:22:31;;;;;;;;;;;;;;;;;;5022106;28;19975;-68
2022/01/19 15:24:57;;;;;;;;;;;;;;;;;;5021589;28;20658;-71
2022/01/19 15:27:25;;;;;;;;;;;;;;;;;;5022866;28;20000;-71
2022/01/19 15:29:51;;;;;;;;;;;;;;;;;;5056835;28;19929;-71
2022/01/19 15:32:18;;;;;;;;;;;;;;;;;;5022568;28;19929;-70
2022/01/19 15:34:45;;;;;;;;;;;;;;;;;;5022096;28;19921;-71
2022/01/19 15:37:15;;;;;;;;;;;;;;;;;;5015648;28;19921;-70
2022/01/19 15:39:46;;;;;;;;;;;;;;;;;;5024723;28;19925;-71
2022/01/19 15:42:14;;;;;;;;;;;;;;;;;;5022703;28;19967;-70
2022/01/19 15:44:41;;;;;;;;;;;;;;;;;;5024359;28;19929;-70
2022/01/19 15:47:08;;;;;;;;;;;;;;;;;;5020254;28;20113;-72
2022/01/19 15:49:34;;;;;;;;;;;;;;;;;;5022073;28;19925;-70
2022/01/19 15:52:02;;;;;;;;;;;;;;;;;;5022576;28;20300;-67
2022/01/19 15:54:28;;;;;;;;;;;;;;;;;;5018860;28;19980;-69
2022/01/19 15:56:55;;;;;;;;;;;;;;;;;;5022093;28;19921;-70
2022/01/19 15:59:23;;;;;;;;;;;;;;;;;;5021985;28;19929;-69
2022/01/19 16:01:50;;;;;;;;;;;;;;;;;;5022021;28;19921;-70
2022/01/19 16:04:26;;;;;;;;;;;;;;;;;;5035339;28;19932;-71
2022/01/19 16:06:54;;;;;;;;;;;;;;;;;;5022063;28;19925;-72
2022/01/19 16:09:21;;;;;;;;;;;;;;;;;;5021684;28;19928;-73
2022/01/19 16:11:48;;;;;;;;;;;;;;;;;;5020642;28;19929;-68
2022/01/19 16:14:14;;;;;;;;;;;;;;;;;;5020176;28;19921;-66
2022/01/19 16:16:41;;;;;;;;;;;;;;;;;;5024909;28;19975;-68
2022/01/19 16:19:07;;;;;;;;;;;;;;;;;;5021580;28;19936;-69
2022/01/19 16:21:35;;;;;;;;;;;;;;;;;;5020854;28;19984;-68
2022/01/19 16:26:47;;;;;;;;;;;;;;;;;;5018441;28;19922;-67
2022/01/19 16:29:13;;;;;;;;;;;;;;;;;;5023104;28;19929;-65
2022/01/19 16:31:40;;;;;;;;;;;;;;;;;;5018889;28;19975;-67
2022/01/19 16:34:06;;;;;;;;;;;;;;;;;;5020781;28;20007;-65
2022/01/19 16:36:33;;;;;;;;;;;;;;;;;;5020351;28;19925;-68
2022/01/19 16:39:00;;;;;;;;;;;;;;;;;;5051932;28;19925;-69
2022/01/19 16:41:27;;;;;;;;;;;;;;;;;;5019973;28;19993;-69